Time;durP1;ratioP1;P1;durP2;ratioP2;P2;SDS_P1;SDS_P2;PMS_P1;PMS_P2;Temp;Humidity;BMP_temperature;BMP_pressure;BME280_temperature;BME280_humidity;BME280_pressure;Samples;Min_cycle;Max_cycle;Signal;HPM_P1;HPM_P2
2023/01/07 00:01:42;;;;;;;6.53;6.03;;;;;;;;;;5042959;28;20381;-87
2023/01/07 00:04:10;;;;;;;7.78;7.07;;;;;;;;;;5033728;28;20736;-87
2023/01/07 00:06:38;;;;;;;7.43;6.85;;;;;;;;;;5047369;28;20387;-87
2023/01/07 00:09:05;;;;;;;5.90;5.50;;;;;;;;;;5046364;28;20386;-87
2023/01/07 00:11:32;;;;;;;6.88;6.38;;;;;;;;;;5030205;28;20497;-86
2023/01/07 00:13:59;;;;;;;6.30;5.80;;;;;;;;;;5022166;28;20928;-87
2023/01/07 00:16:26;;;;;;;5.68;5.28;;;;;;;;;;5029664;28;20375;-88
2023/01/07 00:18:52;;;;;;;6.00;5.50;;;;;;;;;;5016224;28;20383;-87
2023/01/07 00:21:19;;;;;;;6.00;5.53;;;;;;;;;;5017067;28;20438;-86
2023/01/07 00:23:46;;;;;;;6.25;5.75;;;;;;;;;;5012790;28;20396;-87
2023/01/07 00:26:19;;;;;;;6.53;5.93;;;;;;;;;;5014176;28;20388;-87
2023/01/07 00:28:45;;;;;;;5.85;5.40;;;;;;;;;;5013563;28;20385;-87
2023/01/07 00:31:13;;;;;;;6.97;6.38;;;;;;;;;;5011864;28;20408;-86
2023/01/07 00:33:50;;;;;;;6.90;6.33;;;;;;;;;;5011561;28;20387;-86
2023/01/07 00:36:17;;;;;;;6.22;5.80;;;;;;;;;;5015012;28;20391;-86
2023/01/07 00:38:43;;;;;;;5.97;5.57;;;;;;;;;;5021054;28;20430;-86
2023/01/07 00:41:09;;;;;;;7.10;6.47;;;;;;;;;;5012330;28;20420;-87
2023/01/07 00:43:35;;;;;;;7.20;6.65;;;;;;;;;;5013976;28;20389;-88
2023/01/07 00:46:01;;;;;;;6.63;6.13;;;;;;;;;;5015020;28;20394;-87
2023/01/07 00:48:27;;;;;;;8.05;7.25;;;;;;;;;;5019139;28;20405;-85
2023/01/07 00:50:54;;;;;;;7.80;7.13;;;;;;;;;;5017291;28;20500;-86
2023/01/07 00:53:20;;;;;;;7.72;7.13;;;;;;;;;;5018854;28;20385;-86
2023/01/07 00:55:49;;;;;;;8.07;7.47;;;;;;;;;;5013181;28;20439;-86
2023/01/07 00:58:18;;;;;;;7.23;6.63;;;;;;;;;;5022751;28;20369;-86
2023/01/07 01:00:44;;;;;;;6.68;6.18;;;;;;;;;;5025881;28;20389;-88
2023/01/07 01:03:11;;;;;;;7.28;6.63;;;;;;;;;;5022274;28;20439;-87
2023/01/07 01:05:37;;;;;;;6.40;5.90;;;;;;;;;;5021069;28;20417;-87
2023/01/07 01:08:03;;;;;;;6.43;5.93;;;;;;;;;;5021548;28;20478;-88
2023/01/07 01:10:29;;;;;;;6.50;6.00;;;;;;;;;;5019855;28;20384;-86
2023/01/07 01:12:55;;;;;;;6.60;6.00;;;;;;;;;;5016640;28;20754;-86
2023/01/07 01:15:21;;;;;;;6.35;5.85;;;;;;;;;;5014272;28;20434;-88
2023/01/07 01:17:47;;;;;;;7.00;6.40;;;;;;;;;;5012527;28;20373;-87
2023/01/07 01:20:14;;;;;;;7.10;6.50;;;;;;;;;;5028909;28;20748;-86
2023/01/07 01:22:40;;;;;;;6.85;6.25;;;;;;;;;;5033985;28;20414;-86
2023/01/07 01:25:07;;;;;;;6.45;5.93;;;;;;;;;;5034800;28;20445;-86
2023/01/07 01:27:33;;;;;;;6.32;5.82;;;;;;;;;;5034895;28;20468;-87
2023/01/07 01:29:59;;;;;;;6.63;6.13;;;;;;;;;;5034506;28;20414;-86
2023/01/07 01:32:25;;;;;;;6.88;6.38;;;;;;;;;;5034646;28;20407;-85
2023/01/07 01:34:51;;;;;;;5.65;5.22;;;;;;;;;;5035049;28;20375;-87
2023/01/07 01:37:17;;;;;;;4.83;4.43;;;;;;;;;;5035090;28;20555;-86
2023/01/07 01:39:43;;;;;;;5.43;5.03;;;;;;;;;;5028958;28;20503;-86
2023/01/07 01:42:12;;;;;;;5.70;5.20;;;;;;;;;;5051817;28;20404;-87
2023/01/07 01:44:52;;;;;;;5.18;4.78;;;;;;;;;;5034885;28;20379;-86
2023/01/07 01:47:27;;;;;;;6.13;5.60;;;;;;;;;;5034751;28;20394;-86
2023/01/07 01:50:00;;;;;;;4.85;4.55;;;;;;;;;;5034772;28;20387;-87
2023/01/07 01:52:31;;;;;;;6.15;5.65;;;;;;;;;;5054562;28;20398;-86
2023/01/07 01:54:59;;;;;;;5.50;5.10;;;;;;;;;;5054634;28;20374;-87
2023/01/07 01:57:27;;;;;;;5.75;5.35;;;;;;;;;;5053081;28;20465;-86
2023/01/07 01:59:54;;;;;;;5.30;4.80;;;;;;;;;;5041486;28;20371;-86
2023/01/07 02:02:24;;;;;;;5.03;4.63;;;;;;;;;;5046770;28;20383;-86
2023/01/07 02:04:50;;;;;;;4.90;4.60;;;;;;;;;;5047134;28;20382;-86
2023/01/07 02:07:17;;;;;;;4.65;4.35;;;;;;;;;;5045113;28;20434;-86
2023/01/07 02:09:44;;;;;;;5.30;4.90;;;;;;;;;;5048484;28;20854;-87
2023/01/07 02:12:10;;;;;;;4.70;4.30;;;;;;;;;;5036217;28;20492;-86
2023/01/07 02:14:51;;;;;;;4.18;3.78;;;;;;;;;;5053924;28;20461;-86
2023/01/07 02:17:40;;;;;;;4.60;4.30;;;;;;;;;;5053388;28;20992;-86
2023/01/07 02:20:25;;;;;;;4.93;4.53;;;;;;;;;;5041069;28;20464;-87
2023/01/07 02:23:09;;;;;;;5.00;4.55;;;;;;;;;;5037367;28;20723;-86
2023/01/07 02:25:53;;;;;;;5.53;5.13;;;;;;;;;;5031398;28;20892;-87
2023/01/07 02:28:37;;;;;;;4.55;4.22;;;;;;;;;;5036184;28;20445;-86
2023/01/07 02:31:09;;;;;;;5.70;5.20;;;;;;;;;;5033003;28;20403;-87
2023/01/07 02:33:38;;;;;;;5.60;5.10;;;;;;;;;;5033957;28;20386;-86
2023/01/07 02:36:04;;;;;;;7.57;6.97;;;;;;;;;;5033823;28;20380;-87
2023/01/07 02:38:55;;;;;;;6.90;6.40;;;;;;;;;;5034606;28;20390;-87
2023/01/07 02:41:53;;;;;;;7.32;6.72;;;;;;;;;;5020483;28;20411;-87
2023/01/07 02:44:34;;;;;;;6.90;6.38;;;;;;;;;;4979784;28;20388;-87
2023/01/07 02:47:11;;;;;;;7.18;6.57;;;;;;;;;;5033562;28;20845;-86
2023/01/07 02:49:37;;;;;;;6.97;6.35;;;;;;;;;;5033517;28;20452;-86
2023/01/07 02:52:16;;;;;;;6.97;6.47;;;;;;;;;;5032172;28;20507;-86
2023/01/07 02:54:42;;;;;;;7.40;6.80;;;;;;;;;;5033520;28;20433;-86
2023/01/07 02:57:11;;;;;;;7.20;6.60;;;;;;;;;;5033414;28;20383;-86
2023/01/07 02:59:49;;;;;;;6.68;6.18;;;;;;;;;;5031018;28;20803;-86
2023/01/07 03:02:15;;;;;;;6.43;5.93;;;;;;;;;;5044742;28;20473;-86
2023/01/07 03:04:44;;;;;;;5.95;5.55;;;;;;;;;;5047935;28;21169;-87
2023/01/07 03:07:18;;;;;;;5.90;5.40;;;;;;;;;;5046684;28;20394;-86
2023/01/07 03:09:55;;;;;;;5.45;5.00;;;;;;;;;;5048550;28;20450;-86
2023/01/07 03:12:29;;;;;;;6.32;5.72;;;;;;;;;;5032995;28;20924;-86
2023/01/07 03:14:59;;;;;;;6.22;5.72;;;;;;;;;;5033020;28;20962;-87
2023/01/07 03:17:31;;;;;;;5.97;5.57;;;;;;;;;;5033123;28;20379;-86
2023/01/07 03:19:59;;;;;;;6.40;5.82;;;;;;;;;;5025809;28;20859;-86
2023/01/07 03:22:26;;;;;;;5.72;5.22;;;;;;;;;;5022460;28;20399;-87
2023/01/07 03:24:54;;;;;;;6.93;6.43;;;;;;;;;;5031458;28;21143;-87
2023/01/07 03:27:22;;;;;;;6.47;6.00;;;;;;;;;;5030981;28;20873;-87
2023/01/07 03:29:48;;;;;;;6.30;5.80;;;;;;;;;;5032335;28;20718;-86
2023/01/07 03:32:22;;;;;;;7.40;6.80;;;;;;;;;;5032593;28;20453;-87
2023/01/07 03:34:48;;;;;;;7.10;6.60;;;;;;;;;;5032355;28;20501;-86
2023/01/07 03:37:18;;;;;;;6.32;5.93;;;;;;;;;;5024862;28;20903;-86
2023/01/07 03:39:45;;;;;;;6.97;6.38;;;;;;;;;;5035888;28;20395;-85
2023/01/07 03:44:57;;;;;;;6.93;6.43;;;;;;;;;;5012921;28;20380;-86
2023/01/07 03:47:24;;;;;;;7.05;6.55;;;;;;;;;;5025786;28;20912;-87
2023/01/07 03:49:50;;;;;;;7.80;7.10;;;;;;;;;;5030441;28;20383;-86
2023/01/07 03:52:16;;;;;;;8.40;7.80;;;;;;;;;;5030446;28;20431;-86
2023/01/07 03:54:42;;;;;;;8.13;7.53;;;;;;;;;;5029098;28;20521;-87
2023/01/07 03:57:08;;;;;;;8.13;7.53;;;;;;;;;;5021432;28;20375;-86
2023/01/07 03:59:34;;;;;;;7.93;7.32;;;;;;;;;;5033119;28;20385;-86
2023/01/07 04:02:00;;;;;;;7.18;6.68;;;;;;;;;;5044670;28;20410;-86
2023/01/07 04:04:26;;;;;;;7.30;6.80;;;;;;;;;;5049558;28;20824;-86
2023/01/07 04:06:52;;;;;;;7.07;6.57;;;;;;;;;;5033655;28;20866;-86
2023/01/07 04:09:20;;;;;;;6.70;6.20;;;;;;;;;;5046084;28;20381;-86
2023/01/07 04:11:46;;;;;;;7.57;6.90;;;;;;;;;;5051887;28;20762;-86
2023/01/07 04:14:12;;;;;;;7.83;7.13;;;;;;;;;;5044635;28;20390;-87
2023/01/07 04:16:38;;;;;;;7.82;7.22;;;;;;;;;;5021231;28;20373;-86
2023/01/07 04:19:04;;;;;;;6.95;6.45;;;;;;;;;;5032769;28;20381;-85
2023/01/07 04:21:30;;;;;;;7.68;7.07;;;;;;;;;;5036842;28;20383;-85
2023/01/07 04:23:56;;;;;;;6.85;6.35;;;;;;;;;;5034300;28;20405;-86
2023/01/07 04:26:22;;;;;;;6.80;6.30;;;;;;;;;;5049501;28;20910;-85
2023/01/07 04:28:48;;;;;;;6.40;5.90;;;;;;;;;;5032481;28;20383;-86
2023/01/07 04:31:14;;;;;;;6.10;5.60;;;;;;;;;;5032211;28;20895;-86
2023/01/07 04:33:40;;;;;;;6.15;5.65;;;;;;;;;;5031885;28;20390;-86
2023/01/07 04:36:07;;;;;;;6.00;5.60;;;;;;;;;;5031901;28;20732;-86
2023/01/07 04:38:33;;;;;;;6.22;5.72;;;;;;;;;;5032385;28;20375;-86
2023/01/07 04:40:59;;;;;;;7.05;6.45;;;;;;;;;;5033321;28;20414;-86
2023/01/07 04:43:25;;;;;;;6.03;5.63;;;;;;;;;;5030112;28;20399;-87
2023/01/07 04:45:51;;;;;;;6.93;6.43;;;;;;;;;;5031631;28;20395;-86
2023/01/07 04:48:17;;;;;;;6.68;6.18;;;;;;;;;;5030116;28;20435;-87
2023/01/07 04:50:43;;;;;;;7.97;7.38;;;;;;;;;;5029914;28;20823;-87
2023/01/07 04:53:09;;;;;;;7.03;6.53;;;;;;;;;;5030199;28;20470;-87
2023/01/07 04:55:35;;;;;;;7.10;6.60;;;;;;;;;;5033133;28;20452;-87
2023/01/07 04:58:01;;;;;;;8.30;7.75;;;;;;;;;;5033218;28;20377;-87
2023/01/07 05:00:27;;;;;;;7.88;7.28;;;;;;;;;;5039763;28;20393;-86
2023/01/07 05:02:53;;;;;;;7.82;7.22;;;;;;;;;;5031412;28;20429;-86
2023/01/07 05:05:19;;;;;;;8.38;7.78;;;;;;;;;;5030102;28;20848;-86
2023/01/07 05:07:45;;;;;;;21.98;19.67;;;;;;;;;;5031359;28;20553;-86
2023/01/07 05:10:12;;;;;;;9.82;9.02;;;;;;;;;;5045891;28;20894;-86
2023/01/07 05:12:38;;;;;;;8.97;8.27;;;;;;;;;;5030646;28;20432;-87
2023/01/07 05:15:04;;;;;;;11.95;10.98;;;;;;;;;;5034864;28;20396;-87
2023/01/07 05:17:30;;;;;;;13.88;12.70;;;;;;;;;;5039366;28;20379;-86
2023/01/07 05:19:56;;;;;;;8.90;8.30;;;;;;;;;;5050467;28;20906;-86
2023/01/07 05:22:22;;;;;;;10.98;10.10;;;;;;;;;;5050524;28;20465;-87
2023/01/07 05:24:48;;;;;;;11.60;10.60;;;;;;;;;;5032456;28;20476;-86
2023/01/07 05:27:14;;;;;;;21.80;18.10;;;;;;;;;;5050868;28;20487;-86
2023/01/07 05:29:40;;;;;;;11.50;10.57;;;;;;;;;;5051100;28;20385;-86
2023/01/07 05:32:06;;;;;;;11.05;10.25;;;;;;;;;;5050979;28;20459;-86
2023/01/07 05:34:32;;;;;;;10.13;9.33;;;;;;;;;;5040064;28;20872;-86
2023/01/07 05:36:58;;;;;;;8.95;8.35;;;;;;;;;;5031042;28;20374;-87
2023/01/07 05:39:25;;;;;;;9.48;8.77;;;;;;;;;;5034251;28;20872;-87
2023/01/07 05:41:51;;;;;;;8.90;8.30;;;;;;;;;;5029918;28;20387;-86
2023/01/07 05:44:17;;;;;;;8.50;7.90;;;;;;;;;;5031098;28;20470;-86
2023/01/07 05:46:43;;;;;;;8.43;7.82;;;;;;;;;;5014224;28;20484;-87
2023/01/07 05:49:09;;;;;;;9.02;8.38;;;;;;;;;;5017516;28;20394;-87
2023/01/07 05:51:38;;;;;;;9.90;9.20;;;;;;;;;;5017701;28;20906;-86
2023/01/07 05:54:04;;;;;;;9.82;9.13;;;;;;;;;;5015849;28;20488;-85
2023/01/07 05:56:30;;;;;;;9.80;9.10;;;;;;;;;;5034231;28;20868;-86
2023/01/07 05:58:56;;;;;;;10.07;9.32;;;;;;;;;;5034437;28;20414;-86
2023/01/07 06:01:22;;;;;;;9.57;8.77;;;;;;;;;;5033312;28;20391;-86
2023/01/07 06:03:48;;;;;;;10.02;9.23;;;;;;;;;;5023867;28;20382;-86
2023/01/07 06:06:14;;;;;;;8.88;8.27;;;;;;;;;;5027164;28;20385;-87
2023/01/07 06:08:40;;;;;;;8.93;8.33;;;;;;;;;;5018121;28;20381;-86
2023/01/07 06:11:07;;;;;;;9.23;8.55;;;;;;;;;;5014442;28;20532;-86
2023/01/07 06:13:33;;;;;;;8.60;7.90;;;;;;;;;;5040092;28;20385;-86
2023/01/07 06:16:00;;;;;;;9.32;8.63;;;;;;;;;;5041870;28;20377;-87
2023/01/07 06:18:26;;;;;;;8.93;8.23;;;;;;;;;;5050506;28;20440;-86
2023/01/07 06:20:52;;;;;;;8.88;8.18;;;;;;;;;;5027764;28;20803;-86
2023/01/07 06:23:18;;;;;;;9.20;8.50;;;;;;;;;;5049868;28;20397;-87
2023/01/07 06:25:44;;;;;;;9.05;8.35;;;;;;;;;;5035594;28;20387;-87
2023/01/07 06:28:10;;;;;;;9.57;8.87;;;;;;;;;;5033917;28;20383;-87
2023/01/07 06:30:36;;;;;;;8.60;8.00;;;;;;;;;;5025950;28;20479;-85
2023/01/07 06:33:04;;;;;;;8.70;8.10;;;;;;;;;;5012741;28;20388;-86
2023/01/07 06:35:30;;;;;;;9.77;9.07;;;;;;;;;;5019163;28;20383;-85
2023/01/07 06:37:56;;;;;;;9.73;9.02;;;;;;;;;;5014875;28;20385;-86
2023/01/07 06:40:22;;;;;;;10.05;9.35;;;;;;;;;;5014006;28;20413;-87
2023/01/07 06:42:48;;;;;;;10.63;9.82;;;;;;;;;;5016075;28;20389;-84
2023/01/07 06:45:14;;;;;;;10.25;9.55;;;;;;;;;;5013770;28;20416;-85
2023/01/07 06:47:40;;;;;;;10.02;9.23;;;;;;;;;;5015217;28;20881;-85
2023/01/07 06:50:06;;;;;;;10.10;9.30;;;;;;;;;;5014432;28;20401;-83
2023/01/07 06:52:32;;;;;;;9.63;8.93;;;;;;;;;;5014384;28;20412;-82
2023/01/07 06:54:58;;;;;;;9.43;8.73;;;;;;;;;;5023424;28;20394;-81
2023/01/07 06:57:24;;;;;;;9.53;8.83;;;;;;;;;;5032129;28;20384;-81
2023/01/07 06:59:50;;;;;;;9.43;8.73;;;;;;;;;;5033308;28;20780;-83
2023/01/07 07:02:17;;;;;;;9.50;8.63;;;;;;;;;;5038536;28;20458;-84
2023/01/07 07:04:43;;;;;;;10.32;9.48;;;;;;;;;;5025385;28;20817;-83
2023/01/07 07:07:09;;;;;;;9.10;8.40;;;;;;;;;;5029972;28;20472;-85
2023/01/07 07:09:35;;;;;;;14.02;12.65;;;;;;;;;;5037092;28;20395;-85
2023/01/07 07:12:01;;;;;;;9.98;9.15;;;;;;;;;;5028672;28;20420;-88
2023/01/07 07:14:27;;;;;;;8.85;8.15;;;;;;;;;;5026204;28;20405;-87
2023/01/07 07:16:53;;;;;;;8.77;8.07;;;;;;;;;;5033256;28;20371;-87
2023/01/07 07:19:19;;;;;;;9.38;8.57;;;;;;;;;;5029357;28;20385;-87
2023/01/07 07:21:46;;;;;;;8.48;7.78;;;;;;;;;;5026928;28;20394;-88
2023/01/07 07:24:12;;;;;;;8.63;8.02;;;;;;;;;;5042065;28;20393;-86
2023/01/07 07:26:38;;;;;;;7.88;7.28;;;;;;;;;;5042316;28;20395;-82
2023/01/07 07:29:04;;;;;;;8.90;8.20;;;;;;;;;;5042136;28;20391;-83
2023/01/07 07:31:30;;;;;;;8.32;7.63;;;;;;;;;;5019544;28;20771;-83
2023/01/07 07:33:56;;;;;;;8.80;8.20;;;;;;;;;;5017025;28;20389;-82
2023/01/07 07:36:22;;;;;;;9.00;8.35;;;;;;;;;;5035051;28;20381;-84
2023/01/07 07:38:49;;;;;;;9.18;8.38;;;;;;;;;;5034848;28;20864;-82
2023/01/07 07:41:15;;;;;;;9.43;8.73;;;;;;;;;;5052327;28;20496;-83
2023/01/07 07:43:41;;;;;;;9.45;8.73;;;;;;;;;;5052649;28;20516;-83
2023/01/07 07:46:07;;;;;;;9.57;8.90;;;;;;;;;;5052604;28;21039;-83
2023/01/07 07:48:33;;;;;;;10.35;9.55;;;;;;;;;;5052639;28;20377;-84
2023/01/07 07:50:59;;;;;;;9.97;9.27;;;;;;;;;;5039890;28;20492;-84
2023/01/07 07:53:25;;;;;;;11.02;10.23;;;;;;;;;;5031382;28;20871;-83
2023/01/07 07:55:52;;;;;;;12.57;11.68;;;;;;;;;;5039568;28;20373;-82
2023/01/07 07:58:18;;;;;;;10.20;9.40;;;;;;;;;;5016293;28;20887;-83
2023/01/07 08:00:44;;;;;;;11.02;10.13;;;;;;;;;;5031943;28;20399;-82
2023/01/07 08:03:10;;;;;;;10.87;10.07;;;;;;;;;;5033691;28;20382;-82
2023/01/07 08:05:40;;;;;;;9.38;8.68;;;;;;;;;;5044080;28;20383;-83
2023/01/07 08:08:08;;;;;;;9.23;8.52;;;;;;;;;;5024322;28;20395;-83
2023/01/07 08:10:34;;;;;;;9.35;8.65;;;;;;;;;;5026997;28;20386;-83
2023/01/07 08:13:00;;;;;;;8.93;8.32;;;;;;;;;;5030977;28;20411;-83
2023/01/07 08:15:26;;;;;;;9.00;8.40;;;;;;;;;;5029967;28;20383;-82
2023/01/07 08:18:06;;;;;;;8.50;7.90;;;;;;;;;;5023443;28;20392;-83
2023/01/07 08:20:32;;;;;;;10.10;9.20;;;;;;;;;;5022167;28;20399;-82
2023/01/07 08:22:59;;;;;;;8.68;8.07;;;;;;;;;;5020359;28;20398;-82
2023/01/07 08:25:25;;;;;;;8.85;8.25;;;;;;;;;;5033823;28;20880;-82
2023/01/07 08:27:51;;;;;;;9.30;8.52;;;;;;;;;;5031945;28;20864;-82
2023/01/07 08:30:17;;;;;;;9.18;8.48;;;;;;;;;;5031841;28;20386;-82
2023/01/07 08:32:43;;;;;;;8.90;8.20;;;;;;;;;;5031701;28;20425;-82
2023/01/07 08:35:09;;;;;;;9.43;8.73;;;;;;;;;;5031951;28;20852;-82
2023/01/07 08:37:35;;;;;;;9.07;8.48;;;;;;;;;;5031919;28;20461;-82
2023/01/07 08:40:02;;;;;;;8.73;7.93;;;;;;;;;;5031481;28;20856;-82
2023/01/07 08:42:29;;;;;;;8.52;7.85;;;;;;;;;;5030929;28;20401;-82
2023/01/07 08:44:55;;;;;;;7.75;7.05;;;;;;;;;;5034229;28;20394;-82
2023/01/07 08:47:21;;;;;;;7.97;7.38;;;;;;;;;;5031526;28;20402;-82
2023/01/07 08:49:47;;;;;;;8.50;7.80;;;;;;;;;;5031561;28;20458;-82
2023/01/07 08:52:13;;;;;;;9.30;8.50;;;;;;;;;;5031684;28;20984;-82
2023/01/07 08:54:39;;;;;;;8.73;8.02;;;;;;;;;;5031618;28;20398;-82
2023/01/07 08:57:05;;;;;;;7.63;7.03;;;;;;;;;;5031153;28;20385;-81
2023/01/07 08:59:31;;;;;;;7.20;6.70;;;;;;;;;;5030386;28;20908;-82
2023/01/07 09:01:57;;;;;;;6.55;6.10;;;;;;;;;;5031577;28;20387;-82
2023/01/07 09:04:23;;;;;;;6.43;5.93;;;;;;;;;;5031557;28;20411;-82
2023/01/07 09:06:49;;;;;;;5.82;5.43;;;;;;;;;;5031977;28;20744;-83
2023/01/07 09:09:15;;;;;;;5.05;4.75;;;;;;;;;;5032775;28;20390;-82
2023/01/07 09:11:42;;;;;;;5.30;4.90;;;;;;;;;;5030830;28;20923;-81
2023/01/07 09:14:08;;;;;;;5.45;5.05;;;;;;;;;;5031524;28;20390;-82
2023/01/07 09:16:34;;;;;;;5.20;4.80;;;;;;;;;;5031407;28;20386;-81
2023/01/07 09:19:00;;;;;;;5.70;5.30;;;;;;;;;;5031355;28;20407;-82
2023/01/07 09:21:26;;;;;;;5.43;5.03;;;;;;;;;;5031016;28;20394;-82
2023/01/07 09:23:52;;;;;;;5.57;5.18;;;;;;;;;;5031145;28;20411;-81
2023/01/07 09:26:18;;;;;;;5.88;5.40;;;;;;;;;;5034858;28;20943;-82
2023/01/07 09:28:43;;;;;;;6.30;5.90;;;;;;;;;;5034582;28;20391;-82
2023/01/07 09:31:09;;;;;;;5.93;5.50;;;;;;;;;;5032732;28;20403;-82
2023/01/07 09:33:35;;;;;;;6.20;5.80;;;;;;;;;;5035230;28;20469;-82
2023/01/07 09:36:01;;;;;;;6.18;5.78;;;;;;;;;;5035300;28;20920;-83
2023/01/07 09:38:28;;;;;;;6.37;5.97;;;;;;;;;;5034490;28;20389;-82
2023/01/07 09:40:54;;;;;;;6.82;6.32;;;;;;;;;;5021276;28;20485;-81
2023/01/07 09:43:26;;;;;;;6.07;5.68;;;;;;;;;;5038861;28;20406;-84
2023/01/07 09:45:54;;;;;;;6.35;5.95;;;;;;;;;;5034812;28;20464;-83
2023/01/07 09:48:22;;;;;;;7.50;6.87;;;;;;;;;;5032877;28;20473;-82
2023/01/07 09:50:57;;;;;;;7.37;6.67;;;;;;;;;;5030811;28;20405;-83
2023/01/07 09:53:27;;;;;;;6.93;6.43;;;;;;;;;;5038460;28;20382;-83
2023/01/07 09:55:54;;;;;;;8.38;7.68;;;;;;;;;;5040104;28;20376;-84
2023/01/07 09:58:21;;;;;;;7.88;7.35;;;;;;;;;;5034161;28;20380;-83
2023/01/07 10:00:58;;;;;;;7.35;6.85;;;;;;;;;;5034312;28;20402;-86
2023/01/07 10:03:39;;;;;;;7.70;7.10;;;;;;;;;;5045713;28;20375;-83
2023/01/07 10:06:15;;;;;;;7.90;7.20;;;;;;;;;;5033941;28;20865;-83
2023/01/07 10:09:03;;;;;;;8.00;7.40;;;;;;;;;;5036913;28;20474;-84
2023/01/07 10:11:35;;;;;;;7.78;7.18;;;;;;;;;;5037174;28;20518;-81
2023/01/07 10:14:04;;;;;;;7.85;7.28;;;;;;;;;;5034327;28;20379;-81
2023/01/07 10:16:33;;;;;;;7.93;7.32;;;;;;;;;;5034250;28;20383;-82
2023/01/07 10:19:11;;;;;;;7.93;7.32;;;;;;;;;;5033883;28;20433;-82
2023/01/07 10:21:40;;;;;;;7.25;6.75;;;;;;;;;;5034331;28;20387;-81
2023/01/07 10:24:17;;;;;;;7.32;6.82;;;;;;;;;;5041281;28;20386;-83
2023/01/07 10:26:45;;;;;;;7.30;6.80;;;;;;;;;;5034079;28;20380;-82
2023/01/07 10:29:13;;;;;;;6.90;6.40;;;;;;;;;;5033646;28;20380;-82
2023/01/07 10:31:40;;;;;;;7.38;6.85;;;;;;;;;;5033928;28;20568;-81
2023/01/07 10:34:12;;;;;;;7.00;6.50;;;;;;;;;;5033935;28;20383;-82
2023/01/07 10:36:40;;;;;;;7.65;7.05;;;;;;;;;;5033018;28;20839;-82
2023/01/07 10:39:24;;;;;;;7.77;7.17;;;;;;;;;;5034944;28;20383;-82
2023/01/07 10:42:09;;;;;;;7.47;6.88;;;;;;;;;;5033800;28;20410;-82
2023/01/07 10:44:40;;;;;;;7.73;7.03;;;;;;;;;;5033590;28;20871;-84
2023/01/07 10:47:09;;;;;;;7.95;7.32;;;;;;;;;;5043837;28;20381;-83
2023/01/07 10:49:50;;;;;;;7.75;7.13;;;;;;;;;;5034565;28;20387;-80
2023/01/07 10:52:16;;;;;;;8.40;7.70;;;;;;;;;;5039984;28;20481;-81
2023/01/07 10:54:45;;;;;;;8.05;7.45;;;;;;;;;;5033386;28;20773;-83
2023/01/07 10:57:15;;;;;;;8.30;7.70;;;;;;;;;;5033173;28;20380;-81
2023/01/07 10:59:45;;;;;;;8.50;7.80;;;;;;;;;;5023346;28;20446;-81
2023/01/07 11:02:14;;;;;;;9.05;8.35;;;;;;;;;;5039577;28;20423;-81
2023/01/07 11:04:40;;;;;;;8.80;8.10;;;;;;;;;;5036239;28;20398;-82
2023/01/07 11:07:08;;;;;;;9.13;8.32;;;;;;;;;;5032646;28;20780;-82
2023/01/07 11:09:36;;;;;;;9.03;8.33;;;;;;;;;;5046508;28;20389;-82
2023/01/07 11:12:22;;;;;;;9.75;8.95;;;;;;;;;;5044524;28;20517;-81
2023/01/07 11:14:48;;;;;;;9.80;9.00;;;;;;;;;;4989546;28;20462;-82
2023/01/07 11:17:20;;;;;;;8.90;8.20;;;;;;;;;;5031305;28;20388;-82
2023/01/07 11:19:51;;;;;;;9.05;8.35;;;;;;;;;;5033818;28;20880;-82
2023/01/07 11:22:26;;;;;;;8.90;8.20;;;;;;;;;;5033917;28;20375;-83
2023/01/07 11:24:56;;;;;;;10.18;9.38;;;;;;;;;;5033519;28;20383;-82
2023/01/07 11:27:24;;;;;;;23.33;21.40;;;;;;;;;;5033427;28;20399;-82
2023/01/07 11:30:06;;;;;;;19.58;17.92;;;;;;;;;;5033477;28;20387;-82
2023/01/07 11:32:37;;;;;;;12.65;11.55;;;;;;;;;;5032855;28;20410;-82
2023/01/07 11:35:03;;;;;;;10.00;9.30;;;;;;;;;;5039839;28;20385;-83
2023/01/07 11:37:39;;;;;;;9.73;8.73;;;;;;;;;;5030267;28;20390;-82
2023/01/07 11:40:14;;;;;;;9.15;8.40;;;;;;;;;;5032741;28;20411;-83
2023/01/07 11:42:58;;;;;;;9.75;8.95;;;;;;;;;;5032714;28;20445;-83
2023/01/07 11:45:43;;;;;;;9.23;8.43;;;;;;;;;;5032838;28;20379;-82
2023/01/07 11:48:24;;;;;;;8.85;8.15;;;;;;;;;;5032574;28;20394;-83
2023/01/07 11:50:49;;;;;;;8.50;7.90;;;;;;;;;;5032544;28;20383;-83
2023/01/07 11:53:15;;;;;;;9.10;8.23;;;;;;;;;;5032140;28;20441;-83
2023/01/07 11:56:02;;;;;;;8.40;7.80;;;;;;;;;;5027721;28;20375;-82
2023/01/07 11:58:30;;;;;;;9.32;8.57;;;;;;;;;;5032468;28;20398;-82
2023/01/07 12:01:02;;;;;;;8.53;7.83;;;;;;;;;;5032287;28;20383;-82
2023/01/07 12:03:28;;;;;;;8.60;7.97;;;;;;;;;;5032479;28;20469;-81
2023/01/07 12:05:55;;;;;;;8.98;8.30;;;;;;;;;;5031772;28;20470;-83
2023/01/07 12:08:21;;;;;;;8.52;7.93;;;;;;;;;;5031995;28;20407;-83
2023/01/07 12:10:53;;;;;;;8.40;7.80;;;;;;;;;;5032032;28;20394;-83
2023/01/07 12:13:22;;;;;;;8.65;8.05;;;;;;;;;;5032233;28;20422;-83
2023/01/07 12:15:52;;;;;;;9.23;8.52;;;;;;;;;;5051927;28;20449;-83
2023/01/07 12:18:18;;;;;;;8.77;8.07;;;;;;;;;;5052039;28;20417;-83
2023/01/07 12:20:58;;;;;;;9.23;8.53;;;;;;;;;;5034136;28;20505;-85
2023/01/07 12:23:36;;;;;;;9.35;8.45;;;;;;;;;;5052081;28;20386;-83
2023/01/07 12:26:15;;;;;;;8.90;8.20;;;;;;;;;;5034456;28;20389;-84
2023/01/07 12:28:49;;;;;;;8.75;8.02;;;;;;;;;;5038445;28;20915;-83
2023/01/07 12:31:15;;;;;;;8.98;8.27;;;;;;;;;;5032033;28;20410;-83
2023/01/07 12:34:00;;;;;;;10.38;9.57;;;;;;;;;;5031813;28;20989;-83
2023/01/07 12:36:34;;;;;;;10.30;9.50;;;;;;;;;;5031943;28;20411;-82
2023/01/07 12:39:02;;;;;;;8.93;8.32;;;;;;;;;;5031828;28;20393;-82
2023/01/07 12:41:31;;;;;;;11.10;10.07;;;;;;;;;;5019701;28;20900;-83
2023/01/07 12:43:57;;;;;;;10.90;9.95;;;;;;;;;;5031572;28;20391;-82
2023/01/07 12:46:25;;;;;;;9.57;8.88;;;;;;;;;;5018393;28;20442;-82
2023/01/07 12:48:57;;;;;;;9.85;8.98;;;;;;;;;;5031184;28;20395;-82
2023/01/07 12:51:28;;;;;;;10.75;9.73;;;;;;;;;;5029404;28;20923;-82
2023/01/07 12:54:00;;;;;;;10.30;9.50;;;;;;;;;;5021877;28;20780;-82
2023/01/07 12:56:49;;;;;;;9.32;8.60;;;;;;;;;;5031647;28;20379;-82
2023/01/07 12:59:22;;;;;;;9.48;8.77;;;;;;;;;;5019366;28;20391;-83
2023/01/07 13:01:52;;;;;;;10.13;9.32;;;;;;;;;;5036625;28;20407;-81
2023/01/07 13:04:40;;;;;;;9.18;8.48;;;;;;;;;;5038282;28;20405;-82
2023/01/07 13:07:27;;;;;;;9.50;8.80;;;;;;;;;;5035865;28;20944;-82
2023/01/07 13:10:07;;;;;;;10.90;10.00;;;;;;;;;;5057943;28;20385;-81
2023/01/07 13:12:41;;;;;;;11.38;10.38;;;;;;;;;;5057997;28;20416;-82
2023/01/07 13:15:13;;;;;;;9.80;9.02;;;;;;;;;;5057980;28;20381;-82
2023/01/07 13:17:39;;;;;;;9.88;9.07;;;;;;;;;;5057980;28;20385;-81
2023/01/07 13:20:16;;;;;;;10.05;9.25;;;;;;;;;;5057952;28;20750;-81
2023/01/07 13:22:46;;;;;;;9.30;8.60;;;;;;;;;;5058095;28;20899;-82
2023/01/07 13:25:24;;;;;;;9.00;8.30;;;;;;;;;;5057981;28;20389;-82
2023/01/07 13:27:59;;;;;;;9.30;8.57;;;;;;;;;;5057944;28;20389;-81
2023/01/07 13:30:44;;;;;;;9.88;9.07;;;;;;;;;;5057776;28;20388;-81
2023/01/07 13:33:14;;;;;;;9.60;8.70;;;;;;;;;;5039912;28;20894;-81
2023/01/07 13:35:43;;;;;;;10.93;10.02;;;;;;;;;;5049349;28;20394;-81
2023/01/07 13:38:18;;;;;;;10.00;9.30;;;;;;;;;;5057705;28;20392;-81
2023/01/07 13:40:53;;;;;;;9.68;8.85;;;;;;;;;;5057541;28;20420;-81
2023/01/07 13:43:26;;;;;;;9.30;8.60;;;;;;;;;;5057855;28;20389;-81
2023/01/07 13:46:01;;;;;;;9.18;8.48;;;;;;;;;;5057776;28;20392;-81
2023/01/07 13:48:27;;;;;;;9.57;8.88;;;;;;;;;;5057783;28;20452;-81
2023/01/07 13:51:08;;;;;;;9.10;8.50;;;;;;;;;;5057533;28;20385;-81
2023/01/07 13:53:38;;;;;;;8.80;8.20;;;;;;;;;;5057625;28;20377;-81
2023/01/07 13:56:17;;;;;;;9.70;9.00;;;;;;;;;;5054225;28;20384;-81
2023/01/07 13:58:43;;;;;;;9.32;8.63;;;;;;;;;;5027575;28;20371;-81
2023/01/07 14:01:14;;;;;;;8.82;8.13;;;;;;;;;;5048534;28;20383;-81
2023/01/07 14:03:41;;;;;;;9.55;8.75;;;;;;;;;;5049696;28;20384;-81
2023/01/07 14:06:19;;;;;;;8.60;8.00;;;;;;;;;;5057530;28;20385;-81
2023/01/07 14:09:04;;;;;;;8.43;7.82;;;;;;;;;;5057371;28;20373;-81
2023/01/07 14:11:34;;;;;;;8.90;8.20;;;;;;;;;;5038885;28;20414;-81
2023/01/07 14:14:04;;;;;;;8.73;8.02;;;;;;;;;;5054295;28;20373;-82
2023/01/07 14:16:45;;;;;;;9.32;8.50;;;;;;;;;;5054269;28;20373;-82
2023/01/07 14:19:14;;;;;;;8.65;8.05;;;;;;;;;;5040724;28;20394;-82
2023/01/07 14:21:40;;;;;;;9.02;8.23;;;;;;;;;;5036512;28;20848;-82
2023/01/07 14:24:12;;;;;;;8.60;8.00;;;;;;;;;;5054181;28;20384;-81
2023/01/07 14:26:41;;;;;;;8.20;7.60;;;;;;;;;;5054071;28;20474;-82
2023/01/07 14:29:22;;;;;;;8.20;7.50;;;;;;;;;;5053967;28;20389;-84
2023/01/07 14:31:50;;;;;;;7.80;7.20;;;;;;;;;;5053963;28;20416;-84
2023/01/07 14:34:25;;;;;;;7.57;6.97;;;;;;;;;;5053636;28;20378;-82
2023/01/07 14:37:00;;;;;;;7.50;7.00;;;;;;;;;;5036109;28;20379;-82
2023/01/07 14:39:40;;;;;;;8.23;7.63;;;;;;;;;;5033594;28;20714;-81
2023/01/07 14:42:18;;;;;;;8.13;7.53;;;;;;;;;;5033908;28;20394;-83
2023/01/07 14:44:48;;;;;;;8.30;7.60;;;;;;;;;;5033799;28;20926;-82
2023/01/07 14:47:34;;;;;;;8.45;7.75;;;;;;;;;;5033738;28;20394;-82
2023/01/07 14:50:13;;;;;;;8.30;7.70;;;;;;;;;;5032527;28;20384;-81
2023/01/07 14:52:57;;;;;;;8.02;7.43;;;;;;;;;;5033680;28;20468;-80
2023/01/07 14:55:41;;;;;;;8.30;7.53;;;;;;;;;;5033833;28;20379;-81
2023/01/07 14:58:10;;;;;;;8.07;7.47;;;;;;;;;;5034431;28;20978;-81